Time;durP1;ratioP1;P1;durP2;ratioP2;P2;SDS_P1;SDS_P2;PMS_P1;PMS_P2;Temp;Humidity;BMP_temperature;BMP_pressure;BME280_temperature;BME280_humidity;BME280_pressure;Samples;Min_cycle;Max_cycle;Signal;HPM_P1;HPM_P2
2022/11/08 00:01:33;;;;;;;0.70;0.70;;;;;;;;;;10433248;28;20224;-75
2022/11/08 00:17:16;;;;;;;2.88;0.70;;;;;;;;;;10438726;28;20219;-75
2022/11/08 00:22:17;;;;;;;3.47;0.93;;;;;;;;;;10438112;28;20218;-73
2022/11/08 00:27:20;;;;;;;1.00;0.63;;;;;;;;;;10427450;28;20824;-75
2022/11/08 00:32:22;;;;;;;1.05;0.77;;;;;;;;;;10429216;28;20214;-75
2022/11/08 00:37:23;;;;;;;2.92;1.05;;;;;;;;;;10407667;28;20298;-75
2022/11/08 00:42:25;;;;;;;2.92;1.02;;;;;;;;;;10446030;28;20273;-75
2022/11/08 00:47:26;;;;;;;2.92;1.10;;;;;;;;;;10461053;28;20706;-74
2022/11/08 00:52:27;;;;;;;1.08;1.05;;;;;;;;;;10428281;28;20215;-73
2022/11/08 00:57:28;;;;;;;2.67;0.98;;;;;;;;;;10450859;28;20277;-74
2022/11/08 01:02:29;;;;;;;3.33;1.27;;;;;;;;;;10443861;28;20210;-75
2022/11/08 01:07:30;;;;;;;1.95;1.00;;;;;;;;;;10447613;28;20218;-75
2022/11/08 01:12:31;;;;;;;1.45;0.90;;;;;;;;;;10425827;28;20221;-74
2022/11/08 01:17:33;;;;;;;2.10;0.93;;;;;;;;;;10459352;28;20231;-73
2022/11/08 01:22:34;;;;;;;1.73;1.13;;;;;;;;;;10443837;28;20214;-73
2022/11/08 01:27:35;;;;;;;5.05;0.90;;;;;;;;;;10423086;28;20331;-73
2022/11/08 01:32:36;;;;;;;1.65;0.90;;;;;;;;;;10420436;28;20207;-74
2022/11/08 01:37:37;;;;;;;3.15;1.05;;;;;;;;;;10444467;28;20282;-74
2022/11/08 01:42:38;;;;;;;2.33;1.10;;;;;;;;;;10421681;28;20733;-74
2022/11/08 01:47:39;;;;;;;1.73;1.20;;;;;;;;;;10450564;28;20294;-74
2022/11/08 01:52:52;;;;;;;4.25;1.05;;;;;;;;;;10418030;28;20919;-74
2022/11/08 01:57:55;;;;;;;5.20;0.82;;;;;;;;;;10445663;28;20211;-74
2022/11/08 02:03:00;;;;;;;3.65;1.10;;;;;;;;;;10419399;28;20230;-75
2022/11/08 02:08:14;;;;;;;2.38;1.00;;;;;;;;;;10445097;28;20674;-74
2022/11/08 02:13:19;;;;;;;3.65;1.08;;;;;;;;;;10401470;28;20667;-75
2022/11/08 02:18:22;;;;;;;1.08;0.93;;;;;;;;;;10441537;28;20307;-75
2022/11/08 02:23:32;;;;;;;1.70;0.93;;;;;;;;;;10423410;28;20590;-75
2022/11/08 02:28:43;;;;;;;4.25;1.75;;;;;;;;;;10438625;28;20198;-75
2022/11/08 02:33:45;;;;;;;3.65;1.23;;;;;;;;;;10414672;28;20754;-75
2022/11/08 02:38:49;;;;;;;2.90;1.05;;;;;;;;;;10455303;28;20871;-75
2022/11/08 02:43:50;;;;;;;3.45;1.50;;;;;;;;;;10417489;28;20310;-75
2022/11/08 02:48:51;;;;;;;1.63;1.02;;;;;;;;;;10422061;28;20762;-75
2022/11/08 02:53:52;;;;;;;0.77;0.77;;;;;;;;;;10421409;28;20217;-74
2022/11/08 02:58:54;;;;;;;2.63;0.90;;;;;;;;;;10402809;28;20514;-74
2022/11/08 03:03:55;;;;;;;4.43;1.33;;;;;;;;;;10422572;28;20215;-74
2022/11/08 03:08:56;;;;;;;4.20;1.27;;;;;;;;;;10439616;28;20764;-74
2022/11/08 03:13:57;;;;;;;0.88;0.85;;;;;;;;;;10417494;28;20606;-75
2022/11/08 03:18:58;;;;;;;1.58;0.93;;;;;;;;;;10440389;28;20236;-75
2022/11/08 03:24:01;;;;;;;2.90;1.00;;;;;;;;;;10404970;28;20221;-75
2022/11/08 03:29:02;;;;;;;1.63;1.52;;;;;;;;;;10439626;28;20575;-74
2022/11/08 03:34:03;;;;;;;3.88;1.58;;;;;;;;;;10417238;28;20271;-75
2022/11/08 03:39:04;;;;;;;1.58;1.45;;;;;;;;;;10415503;28;20309;-75
2022/11/08 03:44:05;;;;;;;1.83;1.27;;;;;;;;;;10437116;28;20698;-74
2022/11/08 03:49:06;;;;;;;1.75;1.35;;;;;;;;;;10439142;28;20208;-74
2022/11/08 03:54:09;;;;;;;1.52;1.00;;;;;;;;;;10404230;28;20220;-75
2022/11/08 03:59:11;;;;;;;1.98;0.80;;;;;;;;;;10446421;28;20210;-75
2022/11/08 04:04:12;;;;;;;3.58;1.02;;;;;;;;;;10423799;28;20217;-74
2022/11/08 04:09:13;;;;;;;1.27;1.00;;;;;;;;;;10404438;28;20750;-74
2022/11/08 04:24:53;;;;;;;2.83;0.90;;;;;;;;;;10446155;28;20219;-74
2022/11/08 04:29:55;;;;;;;1.05;0.70;;;;;;;;;;10447941;28;20207;-74
2022/11/08 04:34:56;;;;;;;2.72;0.85;;;;;;;;;;10422793;28;21147;-74
2022/11/08 04:39:57;;;;;;;1.75;1.13;;;;;;;;;;10445917;28;20216;-74
2022/11/08 04:44:58;;;;;;;1.67;1.00;;;;;;;;;;10425088;28;20210;-74
2022/11/08 04:49:59;;;;;;;3.15;1.90;;;;;;;;;;10412947;28;20218;-74
2022/11/08 04:55:00;;;;;;;1.08;1.00;;;;;;;;;;10406736;28;20203;-74
2022/11/08 05:00:02;;;;;;;2.35;1.00;;;;;;;;;;10432001;28;20210;-74
2022/11/08 05:05:04;;;;;;;3.40;1.60;;;;;;;;;;10447260;28;20210;-74
2022/11/08 05:10:06;;;;;;;2.63;1.70;;;;;;;;;;10442167;28;20327;-74
2022/11/08 05:15:07;;;;;;;5.13;1.80;;;;;;;;;;10424064;28;20296;-75
2022/11/08 05:25:29;;;;;;;2.22;1.30;;;;;;;;;;10422320;28;20225;-74
2022/11/08 05:30:30;;;;;;;3.78;0.88;;;;;;;;;;10400463;28;20598;-74
2022/11/08 05:35:32;;;;;;;2.28;1.33;;;;;;;;;;10440285;28;20222;-74
2022/11/08 05:40:34;;;;;;;2.58;1.23;;;;;;;;;;10419185;28;20620;-75
2022/11/08 05:45:35;;;;;;;2.03;1.50;;;;;;;;;;10434516;28;20227;-74
2022/11/08 05:50:36;;;;;;;1.40;1.25;;;;;;;;;;10438195;28;20716;-73
2022/11/08 05:55:45;;;;;;;1.48;1.38;;;;;;;;;;10456224;28;20298;-74
2022/11/08 06:00:46;;;;;;;2.25;1.80;;;;;;;;;;10433215;28;20356;-74
2022/11/08 06:05:47;;;;;;;3.00;1.50;;;;;;;;;;10439863;28;20206;-74
2022/11/08 06:10:49;;;;;;;2.00;1.45;;;;;;;;;;10437253;28;20305;-74
2022/11/08 06:15:50;;;;;;;4.18;1.70;;;;;;;;;;10412688;28;20303;-73
2022/11/08 06:20:51;;;;;;;1.42;1.30;;;;;;;;;;10413997;28;20223;-74
2022/11/08 06:25:53;;;;;;;5.47;1.50;;;;;;;;;;10419911;28;20257;-74
2022/11/08 06:30:54;;;;;;;2.55;1.70;;;;;;;;;;10440076;28;20280;-74
2022/11/08 06:35:57;;;;;;;3.03;1.85;;;;;;;;;;10434523;28;20269;-73
2022/11/08 06:40:59;;;;;;;2.33;1.25;;;;;;;;;;10409753;28;20219;-73
2022/11/08 06:46:01;;;;;;;2.70;1.05;;;;;;;;;;10449174;28;20227;-74
2022/11/08 06:51:03;;;;;;;1.85;1.10;;;;;;;;;;10417259;28;20210;-73
2022/11/08 06:56:04;;;;;;;19.67;3.05;;;;;;;;;;10426931;28;20222;-73
2022/11/08 07:01:07;;;;;;;5.20;1.58;;;;;;;;;;10425520;28;20302;-76
2022/11/08 07:06:09;;;;;;;8.07;3.10;;;;;;;;;;10431406;28;20222;-76
2022/11/08 07:11:10;;;;;;;1.50;1.40;;;;;;;;;;10431623;28;20710;-77
2022/11/08 07:16:12;;;;;;;5.13;1.95;;;;;;;;;;10444806;28;20321;-75
2022/11/08 07:21:13;;;;;;;2.38;1.33;;;;;;;;;;10429556;28;20211;-75
2022/11/08 07:26:15;;;;;;;3.47;1.40;;;;;;;;;;10407948;28;20329;-69
2022/11/08 07:31:16;;;;;;;2.40;1.30;;;;;;;;;;10409029;28;20888;-69
2022/11/08 07:36:17;;;;;;;70.95;28.17;;;;;;;;;;10420040;28;21031;-70
2022/11/08 07:41:19;;;;;;;4.65;1.58;;;;;;;;;;10438596;28;20238;-75
2022/11/08 07:46:20;;;;;;;2.33;1.70;;;;;;;;;;10405859;28;20280;-76
2022/11/08 07:51:21;;;;;;;2.72;1.25;;;;;;;;;;10431357;28;20721;-69
2022/11/08 07:56:22;;;;;;;8.32;1.40;;;;;;;;;;10439818;28;20379;-73
2022/11/08 08:01:23;;;;;;;2.15;0.95;;;;;;;;;;10425794;28;20697;-74
2022/11/08 08:06:25;;;;;;;2.45;0.98;;;;;;;;;;10429170;28;20215;-75
2022/11/08 08:11:26;;;;;;;0.90;0.88;;;;;;;;;;10428589;28;20272;-69
2022/11/08 08:16:27;;;;;;;3.22;1.17;;;;;;;;;;10420164;28;20210;-69
2022/11/08 08:21:28;;;;;;;2.75;0.88;;;;;;;;;;10398680;28;20252;-69
2022/11/08 08:26:29;;;;;;;3.85;0.77;;;;;;;;;;10421469;28;20749;-73
2022/11/08 08:31:31;;;;;;;2.05;0.90;;;;;;;;;;10426713;28;20221;-72
2022/11/08 08:36:32;;;;;;;1.73;0.77;;;;;;;;;;10428137;28;20206;-74
2022/11/08 08:41:33;;;;;;;5.47;0.80;;;;;;;;;;10431052;28;20743;-73
2022/11/08 08:46:34;;;;;;;4.15;1.02;;;;;;;;;;10415838;28;20437;-73
2022/11/08 08:51:35;;;;;;;0.50;0.50;;;;;;;;;;10438715;28;20706;-72
2022/11/08 08:56:37;;;;;;;1.17;1.17;;;;;;;;;;10399323;28;20722;-74
2022/11/08 09:01:38;;;;;;;0.60;0.60;;;;;;;;;;10438513;28;20757;-73
2022/11/08 09:06:39;;;;;;;0.55;0.55;;;;;;;;;;10400854;28;20776;-73
2022/11/08 09:11:40;;;;;;;3.20;0.75;;;;;;;;;;10435703;28;20329;-72
2022/11/08 09:16:41;;;;;;;0.77;0.77;;;;;;;;;;10427171;28;20605;-73
2022/11/08 09:21:43;;;;;;;3.80;0.70;;;;;;;;;;10405911;28;20214;-74
2022/11/08 09:26:44;;;;;;;2.72;0.60;;;;;;;;;;10435556;28;20234;-74
2022/11/08 09:31:45;;;;;;;1.25;1.15;;;;;;;;;;10409036;28;20215;-73
2022/11/08 09:36:46;;;;;;;0.50;0.50;;;;;;;;;;10450515;28;20333;-73
2022/11/08 09:42:02;;;;;;;0.60;0.55;;;;;;;;;;10434663;28;20233;-73
2022/11/08 09:47:14;;;;;;;0.80;0.80;;;;;;;;;;10436440;28;20277;-71
2022/11/08 09:52:21;;;;;;;1.95;0.90;;;;;;;;;;10437949;28;20590;-73
2022/11/08 09:57:33;;;;;;;2.63;1.00;;;;;;;;;;10433577;28;20215;-73
2022/11/08 10:02:36;;;;;;;2.10;0.70;;;;;;;;;;10411464;28;20294;-72
2022/11/08 10:08:01;;;;;;;3.83;0.70;;;;;;;;;;10415064;28;21660;-71
2022/11/08 10:13:17;;;;;;;1.85;1.00;;;;;;;;;;10413309;28;20789;-74
2022/11/08 10:18:39;;;;;;;3.63;1.05;;;;;;;;;;10413012;28;20230;-75
2022/11/08 10:23:44;;;;;;;2.47;1.15;;;;;;;;;;10431992;28;20321;-75
2022/11/08 10:28:49;;;;;;;0.80;0.80;;;;;;;;;;10425957;28;20218;-76
2022/11/08 10:33:51;;;;;;;7.75;2.25;;;;;;;;;;10405958;28;20225;-74
2022/11/08 10:39:08;;;;;;;0.70;0.70;;;;;;;;;;10415865;28;20253;-76
2022/11/08 10:44:19;;;;;;;2.17;0.98;;;;;;;;;;10431072;28;20218;-76
2022/11/08 10:49:25;;;;;;;1.23;1.13;;;;;;;;;;10429463;28;20983;-75
2022/11/08 10:54:39;;;;;;;1.55;0.82;;;;;;;;;;10425945;28;20244;-76
2022/11/08 10:59:41;;;;;;;1.88;0.52;;;;;;;;;;10429924;28;20232;-76
2022/11/08 11:04:42;;;;;;;2.58;0.70;;;;;;;;;;10422068;28;20219;-76
2022/11/08 11:09:44;;;;;;;1.77;0.50;;;;;;;;;;10388418;28;20211;-75
2022/11/08 11:14:45;;;;;;;5.28;0.57;;;;;;;;;;10425658;28;21203;-74
2022/11/08 11:19:53;;;;;;;1.65;0.50;;;;;;;;;;10424267;28;20609;-74
2022/11/08 11:24:54;;;;;;;1.33;0.50;;;;;;;;;;10419249;28;20333;-74
2022/11/08 11:30:14;;;;;;;0.93;0.43;;;;;;;;;;10422398;28;20313;-74
2022/11/08 11:35:16;;;;;;;1.75;0.40;;;;;;;;;;10409796;28;20658;-76
2022/11/08 11:40:31;;;;;;;0.70;0.70;;;;;;;;;;10430524;28;20261;-76
2022/11/08 11:45:32;;;;;;;5.95;0.40;;;;;;;;;;10429134;28;20217;-76
2022/11/08 11:50:38;;;;;;;1.98;0.50;;;;;;;;;;10428663;28;20210;-76
2022/11/08 11:55:39;;;;;;;1.58;0.55;;;;;;;;;;10408545;28;20214;-75
2022/11/08 12:00:42;;;;;;;1.50;0.60;;;;;;;;;;10408523;28;20214;-76
2022/11/08 12:05:48;;;;;;;3.00;0.40;;;;;;;;;;10428092;28;20219;-76
2022/11/08 12:11:04;;;;;;;0.73;0.40;;;;;;;;;;10410235;28;20222;-75
2022/11/08 12:16:10;;;;;;;1.42;0.20;;;;;;;;;;10427686;28;20697;-73
2022/11/08 12:21:29;;;;;;;0.95;0.57;;;;;;;;;;10393879;28;20231;-73
2022/11/08 12:26:52;;;;;;;0.77;0.55;;;;;;;;;;10395235;28;20578;-73
2022/11/08 12:32:11;;;;;;;0.55;0.40;;;;;;;;;;10370285;28;20641;-73
2022/11/08 12:37:22;;;;;;;0.50;0.40;;;;;;;;;;10397386;28;20598;-73
2022/11/08 12:42:36;;;;;;;1.17;0.50;;;;;;;;;;10398420;28;20219;-72
2022/11/08 12:47:40;;;;;;;1.70;0.47;;;;;;;;;;10398807;28;20725;-73
2022/11/08 12:52:59;;;;;;;1.30;0.50;;;;;;;;;;10398459;28;20238;-72
2022/11/08 12:58:02;;;;;;;1.90;0.40;;;;;;;;;;10375758;28;20309;-70
2022/11/08 13:03:18;;;;;;;1.00;0.50;;;;;;;;;;10400845;28;20647;-71
2022/11/08 13:08:23;;;;;;;0.30;0.30;;;;;;;;;;10399005;28;20348;-74
2022/11/08 13:13:43;;;;;;;0.38;0.30;;;;;;;;;;10372941;28;20211;-74
2022/11/08 13:18:47;;;;;;;0.40;0.40;;;;;;;;;;10411425;28;20318;-76
2022/11/08 13:23:48;;;;;;;1.13;0.30;;;;;;;;;;10439822;28;20271;-72
2022/11/08 13:28:50;;;;;;;2.33;0.35;;;;;;;;;;10434365;28;20255;-73
2022/11/08 13:33:57;;;;;;;0.30;0.30;;;;;;;;;;10443063;28;20238;-72
2022/11/08 13:39:04;;;;;;;0.45;0.40;;;;;;;;;;10428716;28;20269;-73
2022/11/08 13:44:25;;;;;;;1.48;0.40;;;;;;;;;;10431499;28;20245;-72
2022/11/08 13:49:26;;;;;;;0.47;0.45;;;;;;;;;;10432762;28;21301;-72
2022/11/08 13:54:30;;;;;;;0.43;0.43;;;;;;;;;;10393619;28;20307;-70
2022/11/08 13:59:31;;;;;;;2.60;0.50;;;;;;;;;;10435883;28;20219;-69
2022/11/08 14:04:37;;;;;;;0.77;0.30;;;;;;;;;;10417969;28;20679;-70
2022/11/08 14:09:55;;;;;;;0.40;0.40;;;;;;;;;;10412050;28;20283;-73
2022/11/08 14:15:04;;;;;;;5.35;0.40;;;;;;;;;;10429563;28;20892;-71
2022/11/08 14:20:23;;;;;;;0.95;0.30;;;;;;;;;;10379093;28;20334;-71
2022/11/08 14:25:29;;;;;;;0.30;0.28;;;;;;;;;;10391135;28;20318;-71
2022/11/08 14:30:32;;;;;;;0.30;0.30;;;;;;;;;;10392478;28;20215;-73
2022/11/08 14:35:33;;;;;;;1.25;0.30;;;;;;;;;;10403393;28;20215;-72
2022/11/08 14:40:34;;;;;;;1.02;0.55;;;;;;;;;;10396418;28;20207;-72
2022/11/08 14:45:36;;;;;;;0.73;0.30;;;;;;;;;;10389392;28;20762;-74
2022/11/08 14:50:37;;;;;;;1.20;0.40;;;;;;;;;;10391863;28;20215;-74
2022/11/08 14:55:38;;;;;;;1.67;0.50;;;;;;;;;;10380699;28;20218;-73
2022/11/08 15:00:42;;;;;;;0.40;0.40;;;;;;;;;;10400376;28;20269;-73
2022/11/08 15:06:04;;;;;;;0.40;0.40;;;;;;;;;;10398864;28;20227;-73
2022/11/08 15:11:06;;;;;;;0.40;0.40;;;;;;;;;;10397656;28;20223;-73
2022/11/08 15:16:08;;;;;;;0.52;0.43;;;;;;;;;;10409072;28;20706;-73
2022/11/08 15:21:15;;;;;;;1.15;0.50;;;;;;;;;;10464877;28;20230;-73
2022/11/08 15:26:24;;;;;;;2.75;0.40;;;;;;;;;;10470393;28;20356;-73
2022/11/08 15:31:31;;;;;;;0.40;0.40;;;;;;;;;;10480404;28;20646;-73
2022/11/08 15:36:34;;;;;;;0.30;0.30;;;;;;;;;;10476759;28;20210;-73
2022/11/08 15:41:37;;;;;;;0.20;0.20;;;;;;;;;;10472662;28;20336;-70
2022/11/08 15:46:38;;;;;;;0.77;0.30;;;;;;;;;;10472600;28;20230;-72
2022/11/08 15:51:39;;;;;;;1.27;0.30;;;;;;;;;;10476287;28;20295;-71
2022/11/08 15:56:41;;;;;;;0.50;0.50;;;;;;;;;;10459622;28;20214;-70
2022/11/08 16:01:46;;;;;;;0.40;0.40;;;;;;;;;;10462504;28;20268;-71
2022/11/08 16:06:47;;;;;;;1.00;0.40;;;;;;;;;;10501568;28;20225;-70
2022/11/08 16:11:49;;;;;;;0.60;0.60;;;;;;;;;;10460548;28;20214;-73
2022/11/08 16:16:50;;;;;;;1.35;0.73;;;;;;;;;;10445680;28;20248;-72
2022/11/08 16:21:52;;;;;;;0.52;0.52;;;;;;;;;;10495199;28;20321;-71
2022/11/08 16:26:53;;;;;;;0.40;0.40;;;;;;;;;;10482383;28;20225;-75
2022/11/08 16:31:54;;;;;;;0.50;0.50;;;;;;;;;;10459743;28;20788;-72
2022/11/08 16:36:55;;;;;;;0.70;0.50;;;;;;;;;;10457332;28;20770;-71
2022/11/08 16:41:57;;;;;;;0.88;0.60;;;;;;;;;;10462064;28;20214;-69
2022/11/08 16:46:59;;;;;;;2.15;0.57;;;;;;;;;;10495442;28;20241;-72
2022/11/08 16:52:00;;;;;;;0.68;0.68;;;;;;;;;;10482293;28;20221;-71
2022/11/08 16:57:01;;;;;;;0.63;0.63;;;;;;;;;;10493550;28;20241;-72
2022/11/08 17:02:02;;;;;;;0.98;0.70;;;;;;;;;;10484010;28;20214;-72
2022/11/08 17:07:03;;;;;;;1.00;0.90;;;;;;;;;;10481117;28;20226;-72
2022/11/08 17:12:05;;;;;;;0.50;0.50;;;;;;;;;;10457634;28;24096;-73
2022/11/08 17:17:06;;;;;;;1.55;1.23;;;;;;;;;;10477383;28;20237;-72
2022/11/08 17:22:07;;;;;;;2.05;1.08;;;;;;;;;;10486178;28;20217;-72
2022/11/08 17:27:09;;;;;;;3.13;1.40;;;;;;;;;;10481792;28;20221;-73
2022/11/08 17:32:10;;;;;;;2.90;1.52;;;;;;;;;;10481753;28;20723;-73
2022/11/08 17:37:11;;;;;;;1.85;0.90;;;;;;;;;;10456620;28;20213;-72
2022/11/08 17:42:12;;;;;;;1.00;0.90;;;;;;;;;;10461667;28;20216;-73
2022/11/08 17:47:13;;;;;;;1.08;0.75;;;;;;;;;;10497995;28;20248;-74
2022/11/08 17:52:18;;;;;;;0.68;0.68;;;;;;;;;;10458266;28;20241;-74
2022/11/08 17:57:19;;;;;;;0.85;0.85;;;;;;;;;;10483787;28;20213;-73
2022/11/08 18:02:20;;;;;;;3.50;1.00;;;;;;;;;;10481828;28;20301;-73
2022/11/08 18:07:23;;;;;;;1.45;1.35;;;;;;;;;;10475508;28;20206;-72
2022/11/08 18:12:24;;;;;;;0.85;0.85;;;;;;;;;;10477243;28;20328;-72
2022/11/08 18:17:26;;;;;;;1.52;1.42;;;;;;;;;;10468672;28;20234;-73
2022/11/08 18:22:27;;;;;;;1.42;0.70;;;;;;;;;;10437496;28;20218;-73
2022/11/08 18:27:28;;;;;;;0.88;0.88;;;;;;;;;;10441916;28;20211;-72
2022/11/08 18:32:29;;;;;;;1.38;0.90;;;;;;;;;;10417840;28;20266;-72
2022/11/08 18:37:30;;;;;;;0.90;0.90;;;;;;;;;;10434418;28;20270;-72
2022/11/08 18:42:32;;;;;;;0.70;0.70;;;;;;;;;;10432603;28;20324;-72
2022/11/08 18:47:33;;;;;;;0.70;0.70;;;;;;;;;;10432347;28;20322;-74
2022/11/08 18:52:35;;;;;;;0.70;0.70;;;;;;;;;;10419368;28;20211;-74
2022/11/08 18:57:36;;;;;;;0.60;0.60;;;;;;;;;;10421788;28;20220;-74
2022/11/08 19:02:38;;;;;;;0.50;0.50;;;;;;;;;;10443371;28;20210;-74
2022/11/08 19:07:39;;;;;;;25.58;10.50;;;;;;;;;;10436164;28;20230;-74
2022/11/08 19:12:40;;;;;;;9.82;6.88;;;;;;;;;;10436976;28;20229;-74
2022/11/08 19:17:41;;;;;;;2.42;2.35;;;;;;;;;;10431898;28;20761;-73
2022/11/08 19:22:42;;;;;;;2.47;1.70;;;;;;;;;;10448797;28;20268;-70
2022/11/08 19:27:44;;;;;;;1.35;1.30;;;;;;;;;;10445248;28;20243;-71
2022/11/08 19:32:45;;;;;;;2.10;1.75;;;;;;;;;;10431872;28;20911;-70
2022/11/08 19:37:46;;;;;;;2.28;0.80;;;;;;;;;;10414899;28;20287;-69
2022/11/08 19:42:48;;;;;;;2.05;1.00;;;;;;;;;;10435964;28;20210;-70
2022/11/08 19:47:50;;;;;;;0.80;0.80;;;;;;;;;;10457872;28;20245;-70
2022/11/08 19:52:51;;;;;;;3.20;0.93;;;;;;;;;;10437510;28;20350;-70
2022/11/08 19:57:52;;;;;;;0.60;0.60;;;;;;;;;;10417599;28;20214;-73
2022/11/08 20:02:53;;;;;;;0.90;0.90;;;;;;;;;;10435912;28;20211;-72
2022/11/08 20:07:55;;;;;;;0.95;0.70;;;;;;;;;;10433108;28;20309;-70
2022/11/08 20:12:56;;;;;;;1.58;0.70;;;;;;;;;;10428287;28;21021;-70
2022/11/08 20:17:57;;;;;;;0.60;0.60;;;;;;;;;;10429327;28;20235;-68
2022/11/08 20:22:58;;;;;;;0.75;0.75;;;;;;;;;;10427815;28;20791;-69
2022/11/08 20:28:00;;;;;;;0.57;0.57;;;;;;;;;;10429581;28;20215;-70
2022/11/08 20:33:01;;;;;;;0.80;0.80;;;;;;;;;;10391134;28;20223;-68
2022/11/08 20:38:03;;;;;;;1.00;0.85;;;;;;;;;;10433073;28;20709;-71
2022/11/08 20:43:04;;;;;;;0.88;0.88;;;;;;;;;;10416932;28;20214;-70
2022/11/08 20:48:05;;;;;;;3.25;0.90;;;;;;;;;;10436513;28;20217;-68
2022/11/08 20:53:06;;;;;;;0.50;0.50;;;;;;;;;;10438972;28;20244;-69
2022/11/08 20:58:07;;;;;;;1.27;0.68;;;;;;;;;;10419540;28;21048;-67
2022/11/08 21:03:09;;;;;;;1.33;0.52;;;;;;;;;;10439217;28;20210;-68
2022/11/08 21:08:10;;;;;;;0.82;0.70;;;;;;;;;;10452722;28;20305;-67
2022/11/08 21:13:11;;;;;;;1.15;0.80;;;;;;;;;;10437815;28;20566;-68
2022/11/08 21:18:12;;;;;;;0.68;0.68;;;;;;;;;;10438385;28;20227;-67
2022/11/08 21:23:13;;;;;;;1.73;0.70;;;;;;;;;;10450154;28;20257;-68
2022/11/08 21:28:14;;;;;;;0.77;0.77;;;;;;;;;;10432135;28;20225;-74
2022/11/08 21:33:15;;;;;;;1.63;0.65;;;;;;;;;;10436258;28;20317;-74
2022/11/08 21:38:17;;;;;;;0.50;0.50;;;;;;;;;;10436704;28;20219;-73
2022/11/08 21:43:19;;;;;;;0.60;0.60;;;;;;;;;;10415103;28;20238;-74
2022/11/08 21:48:20;;;;;;;0.63;0.63;;;;;;;;;;10416473;28;20234;-74
2022/11/08 21:53:22;;;;;;;1.52;0.68;;;;;;;;;;10437996;28;20249;-74
2022/11/08 21:58:23;;;;;;;0.98;0.98;;;;;;;;;;10438367;28;20221;-74
2022/11/08 22:03:24;;;;;;;1.67;0.82;;;;;;;;;;10438472;28;20207;-74
2022/11/08 22:08:25;;;;;;;0.90;0.88;;;;;;;;;;10434748;28;20218;-73
2022/11/08 22:13:27;;;;;;;3.72;0.73;;;;;;;;;;10413560;28;20602;-74
2022/11/08 22:18:28;;;;;;;0.80;0.80;;;;;;;;;;10449211;28;20242;-74
2022/11/08 22:23:29;;;;;;;0.60;0.60;;;;;;;;;;10410241;28;20214;-73
2022/11/08 22:28:30;;;;;;;1.40;0.50;;;;;;;;;;10436278;28;20272;-73
2022/11/08 22:33:31;;;;;;;2.72;0.77;;;;;;;;;;10435252;28;20211;-73
2022/11/08 22:38:33;;;;;;;0.77;0.77;;;;;;;;;;10450926;28;20207;-74
2022/11/08 22:43:34;;;;;;;1.55;0.85;;;;;;;;;;10440253;28;20716;-74
2022/11/08 22:48:35;;;;;;;0.75;0.75;;;;;;;;;;10439364;28;20209;-74
2022/11/08 22:53:37;;;;;;;0.55;0.55;;;;;;;;;;10431937;28;20210;-74
2022/11/08 22:58:38;;;;;;;0.57;0.57;;;;;;;;;;10438760;28;20206;-74
2022/11/08 23:03:40;;;;;;;0.98;0.60;;;;;;;;;;10433518;28;20213;-74
2022/11/08 23:08:41;;;;;;;1.13;0.60;;;;;;;;;;10435736;28;20210;-74
2022/11/08 23:24:26;;;;;;;0.60;0.60;;;;;;;;;;10432866;28;20307;-73
2022/11/08 23:34:47;;;;;;;2.45;0.68;;;;;;;;;;10435992;28;20269;-73
2022/11/08 23:45:09;;;;;;;1.27;0.57;;;;;;;;;;10443693;28;20685;-73
2022/11/08 23:50:10;;;;;;;0.88;0.63;;;;;;;;;;10411682;28;20167;-73
2022/11/08 23:55:11;;;;;;;0.40;0.40;;;;;;;;;;10447808;28;20255;-73
